Time;durP1;ratioP1;P1;durP2;ratioP2;P2;SDS_P1;SDS_P2;PMS_P1;PMS_P2;Temp;Humidity;BMP_temperature;BMP_pressure;BME280_temperature;BME280_humidity;BME280_pressure;Samples;Min_cycle;Max_cycle;Signal;HPM_P1;HPM_P2
2022/07/13 00:01:05;;;;;;;2.10;0.75;;;18.60;99.90;;;;;;4985138;28;20111;-67
2022/07/13 00:03:32;;;;;;;4.38;1.10;;;18.60;99.90;;;;;;4985190;28;20088;-66
2022/07/13 00:06:00;;;;;;;0.73;0.73;;;18.60;99.90;;;;;;4985158;28;20400;-67
2022/07/13 00:08:26;;;;;;;1.40;1.00;;;18.60;99.90;;;;;;4985927;28;20130;-68
2022/07/13 00:10:53;;;;;;;0.85;0.85;;;18.60;99.90;;;;;;4981638;28;20058;-68
2022/07/13 00:13:20;;;;;;;1.40;0.95;;;18.60;99.90;;;;;;4982933;28;20144;-68
2022/07/13 00:15:47;;;;;;;0.93;0.88;;;18.60;99.90;;;;;;4983966;28;20046;-68
2022/07/13 00:18:15;;;;;;;3.42;0.70;;;18.50;99.90;;;;;;4983719;28;20123;-66
2022/07/13 00:20:43;;;;;;;1.40;0.90;;;18.50;99.90;;;;;;4985131;28;20136;-67
2022/07/13 00:23:11;;;;;;;1.65;0.90;;;18.50;99.90;;;;;;4985902;28;20054;-66
2022/07/13 00:25:38;;;;;;;2.17;1.27;;;18.50;99.90;;;;;;4984309;28;20412;-68
2022/07/13 00:28:05;;;;;;;1.42;1.02;;;18.50;99.90;;;;;;4983115;28;20054;-67
2022/07/13 00:30:31;;;;;;;2.97;1.02;;;18.40;99.90;;;;;;4984423;28;20077;-66
2022/07/13 00:32:58;;;;;;;1.48;1.15;;;18.40;99.90;;;;;;4984740;28;21017;-68
2022/07/13 00:35:25;;;;;;;2.00;1.27;;;18.40;99.90;;;;;;4982376;28;20070;-68
2022/07/13 00:37:52;;;;;;;2.15;0.90;;;18.30;99.90;;;;;;4985164;28;20061;-66
2022/07/13 00:40:19;;;;;;;3.53;1.00;;;18.30;99.90;;;;;;4986645;28;20136;-66
2022/07/13 00:42:46;;;;;;;1.58;1.25;;;18.20;99.90;;;;;;4982827;28;20147;-68
2022/07/13 00:45:13;;;;;;;2.03;1.20;;;18.20;99.90;;;;;;4983341;28;20077;-66
2022/07/13 00:47:41;;;;;;;2.28;1.23;;;18.30;99.90;;;;;;4983277;28;20624;-67
2022/07/13 00:50:09;;;;;;;1.02;0.70;;;18.20;99.90;;;;;;4982871;28;20361;-66
2022/07/13 00:52:37;;;;;;;1.38;0.70;;;18.30;99.90;;;;;;4983497;28;20054;-66
2022/07/13 00:55:09;;;;;;;1.83;1.17;;;18.30;99.90;;;;;;4984704;28;20070;-68
2022/07/13 00:57:37;;;;;;;3.17;1.00;;;18.30;99.90;;;;;;4982691;28;20039;-67
2022/07/13 01:00:10;;;;;;;1.33;0.90;;;18.40;99.90;;;;;;4984001;28;20043;-66
2022/07/13 01:02:43;;;;;;;1.25;1.15;;;18.40;99.90;;;;;;4992582;28;20054;-67
2022/07/13 01:05:11;;;;;;;2.85;1.15;;;18.30;99.90;;;;;;4992140;28;20064;-66
2022/07/13 01:07:38;;;;;;;1.20;1.10;;;18.30;99.90;;;;;;5001921;28;20045;-66
2022/07/13 01:10:08;;;;;;;1.77;1.40;;;18.30;99.90;;;;;;4996557;28;20046;-65
2022/07/13 01:12:37;;;;;;;2.53;1.23;;;18.30;99.90;;;;;;4998313;28;20073;-68
2022/07/13 01:15:05;;;;;;;2.17;1.30;;;18.30;99.90;;;;;;4998648;28;20117;-66
2022/07/13 01:17:35;;;;;;;4.47;1.38;;;18.20;99.90;;;;;;5000990;28;20145;-66
2022/07/13 01:20:03;;;;;;;2.70;1.92;;;18.20;99.90;;;;;;5001223;28;20045;-68
2022/07/13 01:22:36;;;;;;;2.70;2.00;;;18.20;99.90;;;;;;4999618;28;20104;-66
2022/07/13 01:25:04;;;;;;;3.60;2.42;;;18.10;99.90;;;;;;5000197;28;20046;-66
2022/07/13 01:27:34;;;;;;;1.20;1.02;;;18.10;99.90;;;;;;4998819;28;20125;-67
2022/07/13 01:30:02;;;;;;;3.23;1.60;;;18.00;99.90;;;;;;4993105;28;20046;-66
2022/07/13 01:32:29;;;;;;;4.43;1.30;;;18.00;99.90;;;;;;5005365;28;20068;-66
2022/07/13 01:34:56;;;;;;;2.67;1.95;;;18.00;99.90;;;;;;5003263;28;20092;-66
2022/07/13 01:37:23;;;;;;;2.10;1.55;;;17.90;99.90;;;;;;4997575;28;20403;-66
2022/07/13 01:39:50;;;;;;;2.22;1.52;;;17.90;99.90;;;;;;4994816;28;20141;-66
2022/07/13 01:42:17;;;;;;;1.67;1.55;;;17.80;99.90;;;;;;4999360;28;20681;-66
2022/07/13 01:44:45;;;;;;;1.67;1.17;;;17.70;99.90;;;;;;4999904;28;20046;-65
2022/07/13 01:47:13;;;;;;;6.53;2.30;;;17.60;99.90;;;;;;4997787;28;20062;-66
2022/07/13 01:49:40;;;;;;;2.95;2.10;;;17.60;99.90;;;;;;4977094;28;20074;-66
2022/07/13 01:52:07;;;;;;;5.72;1.65;;;17.50;99.90;;;;;;4994561;28;20054;-68
2022/07/13 01:54:35;;;;;;;2.45;2.22;;;17.60;99.90;;;;;;4996090;28;20766;-66
2022/07/13 01:57:02;;;;;;;2.55;1.73;;;17.60;99.90;;;;;;4998698;28;20081;-66
2022/07/13 01:59:29;;;;;;;3.80;2.25;;;17.70;99.90;;;;;;5003471;28;20112;-65
2022/07/13 02:01:55;;;;;;;1.60;1.50;;;17.70;99.90;;;;;;4998584;28;20104;-67
2022/07/13 02:04:22;;;;;;;4.28;1.40;;;17.70;99.90;;;;;;4999657;28;20050;-66
2022/07/13 02:06:50;;;;;;;2.67;1.13;;;17.80;99.90;;;;;;4999759;28;20487;-67
2022/07/13 02:09:19;;;;;;;2.00;1.67;;;17.80;99.90;;;;;;4988277;28;20176;-65
2022/07/13 02:11:46;;;;;;;3.83;1.90;;;17.80;99.90;;;;;;5002577;28;20663;-66
2022/07/13 02:14:13;;;;;;;3.15;1.73;;;17.80;99.90;;;;;;5001658;28;20065;-65
2022/07/13 02:16:40;;;;;;;3.35;1.98;;;17.80;99.90;;;;;;4999153;28;20490;-67
2022/07/13 02:19:07;;;;;;;1.80;1.70;;;17.80;99.90;;;;;;4986116;28;20054;-66
2022/07/13 02:21:34;;;;;;;3.22;1.75;;;17.90;99.90;;;;;;4980744;28;20042;-66
2022/07/13 02:24:01;;;;;;;2.80;1.45;;;17.90;99.90;;;;;;4970440;28;20042;-66
2022/07/13 02:26:28;;;;;;;7.20;2.63;;;18.00;99.90;;;;;;4984501;28;20751;-68
2022/07/13 02:28:54;;;;;;;4.47;3.03;;;18.00;99.90;;;;;;4982789;28;20542;-66
2022/07/13 02:31:21;;;;;;;2.03;1.80;;;18.00;99.90;;;;;;4997941;28;20125;-65
2022/07/13 02:33:48;;;;;;;3.55;1.63;;;18.10;99.90;;;;;;5000358;28;20062;-66
2022/07/13 02:36:15;;;;;;;3.65;1.67;;;18.10;99.90;;;;;;4997779;28;20104;-66
2022/07/13 02:38:42;;;;;;;4.18;1.40;;;18.20;99.90;;;;;;4998211;28;20108;-66
2022/07/13 02:41:10;;;;;;;2.00;1.58;;;18.20;99.90;;;;;;4999323;28;20118;-70
2022/07/13 02:43:37;;;;;;;2.35;1.27;;;18.20;99.90;;;;;;4999245;28;20484;-65
2022/07/13 02:46:04;;;;;;;4.47;1.25;;;18.20;99.90;;;;;;4998823;28;20073;-67
2022/07/13 02:48:33;;;;;;;1.80;1.48;;;18.30;99.90;;;;;;4999128;28;20054;-68
2022/07/13 02:51:00;;;;;;;4.93;1.52;;;18.20;99.90;;;;;;4997474;28;20108;-69
2022/07/13 02:53:27;;;;;;;2.05;1.67;;;18.20;99.90;;;;;;5012868;28;20065;-66
2022/07/13 02:55:54;;;;;;;1.73;1.52;;;18.20;99.90;;;;;;4996223;28;20132;-68
2022/07/13 02:58:21;;;;;;;6.07;1.48;;;18.20;99.90;;;;;;5009657;28;20207;-66
2022/07/13 03:00:48;;;;;;;1.85;1.30;;;18.20;99.90;;;;;;4997972;28;20046;-65
2022/07/13 03:03:15;;;;;;;1.65;1.15;;;18.20;99.90;;;;;;4978717;28;20058;-66
2022/07/13 03:05:42;;;;;;;6.00;1.80;;;18.20;99.90;;;;;;4985842;28;20384;-66
2022/07/13 03:08:09;;;;;;;1.27;1.17;;;18.20;99.90;;;;;;4997810;28;20089;-66
2022/07/13 03:10:37;;;;;;;2.08;1.48;;;18.20;99.90;;;;;;4999407;28;20129;-67
2022/07/13 03:13:04;;;;;;;3.78;1.05;;;18.20;99.90;;;;;;4993104;28;20132;-67
2022/07/13 03:15:32;;;;;;;3.72;1.27;;;18.20;99.90;;;;;;4998084;28;20093;-66
2022/07/13 03:17:59;;;;;;;1.65;1.38;;;18.20;99.90;;;;;;4997446;28;20049;-66
2022/07/13 03:20:27;;;;;;;2.50;0.65;;;18.20;99.90;;;;;;4999978;28;20045;-68
2022/07/13 03:22:54;;;;;;;1.17;0.60;;;18.30;99.90;;;;;;4996721;28;20061;-67
2022/07/13 03:25:21;;;;;;;5.10;0.95;;;18.20;99.90;;;;;;4997750;28;20120;-66
2022/07/13 03:27:53;;;;;;;1.80;0.90;;;18.20;99.90;;;;;;4996738;28;20104;-66
2022/07/13 03:30:20;;;;;;;2.25;1.27;;;18.30;99.90;;;;;;4996465;28;20056;-66
2022/07/13 03:32:48;;;;;;;4.43;3.00;;;18.30;99.90;;;;;;4999216;28;20056;-68
2022/07/13 03:35:16;;;;;;;3.78;1.35;;;18.30;99.90;;;;;;5000013;28;20590;-66
2022/07/13 03:37:45;;;;;;;1.87;1.00;;;18.30;99.90;;;;;;4994391;28;20070;-67
2022/07/13 03:40:13;;;;;;;1.85;1.67;;;18.30;99.90;;;;;;5000824;28;20700;-65
2022/07/13 03:42:40;;;;;;;2.10;0.98;;;18.20;99.90;;;;;;5001218;28;20115;-66
2022/07/13 03:45:08;;;;;;;3.08;0.93;;;18.20;99.90;;;;;;4995414;28;20425;-65
2022/07/13 03:47:35;;;;;;;1.05;0.90;;;18.20;99.90;;;;;;4991706;28;20237;-66
2022/07/13 03:50:02;;;;;;;1.45;1.00;;;18.20;99.90;;;;;;4992577;28;20042;-66
2022/07/13 03:52:30;;;;;;;0.95;0.70;;;18.20;99.90;;;;;;4997637;28;20160;-65
2022/07/13 03:54:57;;;;;;;4.78;1.13;;;18.20;99.90;;;;;;4995002;28;20145;-66
2022/07/13 03:57:24;;;;;;;2.40;1.00;;;18.20;99.90;;;;;;4998182;28;20050;-66
2022/07/13 03:59:51;;;;;;;3.20;2.90;;;18.20;99.90;;;;;;4984965;28;20065;-66
2022/07/13 04:02:18;;;;;;;2.65;0.80;;;18.20;99.90;;;;;;4977812;28;20053;-65
2022/07/13 04:04:47;;;;;;;1.20;0.77;;;18.20;99.90;;;;;;4976728;28;20117;-66
2022/07/13 04:07:13;;;;;;;3.53;1.45;;;18.30;99.90;;;;;;4980389;28;20050;-66
2022/07/13 04:09:41;;;;;;;2.05;1.00;;;18.30;99.90;;;;;;4980523;28;20073;-68
2022/07/13 04:12:09;;;;;;;0.77;0.60;;;18.30;99.90;;;;;;4976291;28;20750;-66
2022/07/13 04:14:36;;;;;;;2.95;1.42;;;18.30;99.90;;;;;;4978205;28;20042;-66
2022/07/13 04:17:03;;;;;;;1.00;0.70;;;18.40;99.90;;;;;;4993861;28;20053;-66
2022/07/13 04:19:31;;;;;;;1.67;0.98;;;18.40;99.90;;;;;;4995609;28;20137;-67
2022/07/13 04:21:58;;;;;;;2.42;0.70;;;18.40;99.90;;;;;;4999223;28;20058;-66
2022/07/13 04:24:26;;;;;;;2.88;0.82;;;18.30;99.90;;;;;;4997479;28;20050;-66
2022/07/13 04:26:53;;;;;;;2.78;0.80;;;18.30;99.90;;;;;;4996163;28;20050;-65
2022/07/13 04:29:20;;;;;;;5.15;3.22;;;18.30;99.90;;;;;;5003595;28;20058;-66
2022/07/13 04:31:47;;;;;;;1.38;0.60;;;18.20;99.90;;;;;;4987904;28;20496;-65
2022/07/13 04:34:15;;;;;;;1.50;0.98;;;18.20;99.90;;;;;;4999266;28;20072;-67
2022/07/13 04:36:42;;;;;;;6.50;1.20;;;18.20;99.90;;;;;;4997462;28;20050;-68
2022/07/13 04:39:10;;;;;;;1.45;0.70;;;18.20;99.90;;;;;;5000239;28;20052;-65
2022/07/13 04:41:37;;;;;;;2.17;1.00;;;18.20;99.90;;;;;;4998805;28;20049;-66
2022/07/13 04:44:04;;;;;;;1.58;1.17;;;18.10;99.90;;;;;;4995837;28;20049;-65
2022/07/13 04:46:32;;;;;;;2.25;1.20;;;18.20;99.90;;;;;;4998832;28;20061;-65
2022/07/13 04:49:00;;;;;;;2.85;1.13;;;18.20;99.90;;;;;;4993184;28;20077;-66
2022/07/13 04:51:28;;;;;;;1.25;0.82;;;18.30;99.90;;;;;;4992521;28;20046;-66
2022/07/13 04:53:57;;;;;;;1.73;1.10;;;18.30;99.90;;;;;;4992442;28;20753;-66
2022/07/13 04:56:23;;;;;;;2.97;1.55;;;18.40;99.90;;;;;;4998335;28;20595;-66
2022/07/13 04:58:51;;;;;;;3.22;1.67;;;18.40;99.90;;;;;;4999432;28;20042;-66
2022/07/13 05:01:18;;;;;;;2.08;1.17;;;18.40;99.90;;;;;;5003346;28;20070;-67
2022/07/13 05:03:56;;;;;;;2.85;1.10;;;18.50;99.90;;;;;;4997959;28;20077;-66
2022/07/13 05:06:23;;;;;;;1.70;1.00;;;18.50;99.90;;;;;;5003089;28;20041;-66
2022/07/13 05:08:50;;;;;;;1.33;1.10;;;18.60;99.90;;;;;;5002766;28;20050;-66
2022/07/13 05:11:17;;;;;;;1.42;1.27;;;18.60;99.90;;;;;;4996818;28;20474;-66
2022/07/13 05:13:46;;;;;;;1.20;1.10;;;18.70;99.90;;;;;;5010761;28;20126;-67
2022/07/13 05:16:13;;;;;;;3.08;1.35;;;18.70;99.90;;;;;;5001524;28;20042;-66
2022/07/13 05:18:40;;;;;;;2.28;1.48;;;18.80;99.90;;;;;;5000060;28;20112;-67
2022/07/13 05:21:13;;;;;;;1.98;0.90;;;18.80;99.90;;;;;;4994689;28;20077;-67
2022/07/13 05:23:40;;;;;;;1.05;0.80;;;18.70;99.90;;;;;;5017562;28;20559;-65
2022/07/13 05:26:07;;;;;;;0.60;0.60;;;18.80;99.90;;;;;;5000348;28;20042;-65
2022/07/13 05:28:37;;;;;;;1.00;0.90;;;18.80;99.90;;;;;;4997756;28;20144;-66
2022/07/13 05:31:05;;;;;;;2.42;0.63;;;18.80;99.90;;;;;;4999636;28;20058;-65
2022/07/13 05:33:33;;;;;;;3.03;1.17;;;18.80;99.90;;;;;;4996818;28;20046;-66
2022/07/13 05:36:08;;;;;;;2.25;1.08;;;18.80;99.90;;;;;;4998210;28;20038;-66
2022/07/13 05:38:35;;;;;;;2.28;0.95;;;18.70;99.90;;;;;;5003788;28;20088;-66
2022/07/13 05:41:02;;;;;;;3.38;0.93;;;18.70;99.90;;;;;;4999740;28;20065;-67
2022/07/13 05:43:29;;;;;;;7.28;1.05;;;18.80;99.90;;;;;;4998067;28;20169;-66
2022/07/13 05:45:57;;;;;;;3.40;0.90;;;18.80;99.90;;;;;;5000936;28;20369;-66
2022/07/13 05:48:24;;;;;;;6.07;1.27;;;18.80;99.90;;;;;;4998471;28;20054;-68
2022/07/13 05:50:51;;;;;;;4.65;1.00;;;18.80;99.90;;;;;;4986415;28;20058;-69
2022/07/13 05:53:38;;;;;;;7.68;0.95;;;18.90;99.90;;;;;;5014178;28;20444;-67
2022/07/13 05:56:06;;;;;;;4.15;1.00;;;18.90;99.90;;;;;;4989425;28;20038;-66
2022/07/13 05:58:33;;;;;;;0.90;0.70;;;18.90;99.90;;;;;;4987977;28;20070;-67
2022/07/13 06:01:01;;;;;;;10.60;1.60;;;19.00;99.90;;;;;;4998848;28;20049;-66
2022/07/13 06:03:27;;;;;;;2.08;1.42;;;19.00;99.90;;;;;;4998915;28;20045;-65
2022/07/13 06:05:54;;;;;;;4.90;1.08;;;19.00;99.90;;;;;;4996221;28;20133;-66
2022/07/13 06:08:21;;;;;;;2.60;0.95;;;19.00;99.90;;;;;;4995430;28;20054;-68
2022/07/13 06:10:48;;;;;;;2.22;0.88;;;19.10;99.90;;;;;;4994824;28;20066;-66
2022/07/13 06:13:15;;;;;;;2.72;0.85;;;19.00;99.90;;;;;;5001170;28;20053;-65
2022/07/13 06:15:42;;;;;;;1.42;0.75;;;19.10;99.90;;;;;;4994255;28;20077;-66
2022/07/13 06:18:09;;;;;;;1.00;0.80;;;19.20;99.90;;;;;;4983077;28;20046;-66
2022/07/13 06:20:36;;;;;;;2.97;0.93;;;19.20;99.90;;;;;;5002702;28;20049;-66
2022/07/13 06:23:09;;;;;;;1.52;0.80;;;19.30;99.90;;;;;;4999638;28;20114;-66
2022/07/13 06:25:41;;;;;;;3.17;1.23;;;19.30;99.90;;;;;;5004147;28;20115;-66
2022/07/13 06:28:08;;;;;;;2.15;1.95;;;19.30;99.90;;;;;;5000802;28;20112;-65
2022/07/13 06:30:35;;;;;;;1.48;0.77;;;19.30;99.90;;;;;;4999917;28;20049;-67
2022/07/13 06:33:02;;;;;;;2.03;1.02;;;19.40;99.90;;;;;;4994456;28;20046;-65
2022/07/13 06:35:30;;;;;;;1.20;0.80;;;19.30;99.90;;;;;;4996514;28;20085;-66
2022/07/13 06:37:58;;;;;;;1.13;1.00;;;19.30;99.90;;;;;;5001567;28;20562;-65
2022/07/13 06:40:25;;;;;;;2.05;0.93;;;19.40;99.90;;;;;;4999314;28;21607;-67
2022/07/13 06:42:52;;;;;;;0.73;0.50;;;19.30;99.90;;;;;;4998661;28;20511;-66
2022/07/13 06:45:21;;;;;;;4.05;1.67;;;19.30;99.90;;;;;;4999599;28;20033;-65
2022/07/13 06:47:50;;;;;;;1.30;0.90;;;19.30;99.90;;;;;;4995088;28;20078;-66
2022/07/13 06:50:17;;;;;;;1.73;1.15;;;19.40;99.90;;;;;;4999509;28;20392;-66
2022/07/13 06:52:44;;;;;;;3.03;1.08;;;19.40;99.90;;;;;;4995951;28;20077;-67
2022/07/13 06:55:11;;;;;;;2.28;1.10;;;19.40;99.90;;;;;;5000617;28;20152;-65
2022/07/13 06:57:38;;;;;;;2.55;1.55;;;19.50;99.90;;;;;;4994827;28;20065;-65
2022/07/13 07:00:07;;;;;;;1.35;0.85;;;19.50;99.90;;;;;;4997651;28;20054;-66
2022/07/13 07:02:36;;;;;;;2.47;1.10;;;19.50;99.90;;;;;;4985293;28;20416;-68
2022/07/13 07:05:09;;;;;;;3.28;1.20;;;19.50;99.90;;;;;;4975734;28;20046;-66
2022/07/13 07:07:40;;;;;;;2.00;0.95;;;19.50;99.90;;;;;;4989753;28;20540;-66
2022/07/13 07:10:09;;;;;;;1.30;0.60;;;19.50;99.90;;;;;;4993543;28;20045;-65
2022/07/13 07:12:36;;;;;;;3.53;0.90;;;19.50;99.90;;;;;;4994824;28;20135;-68
2022/07/13 07:15:04;;;;;;;2.38;1.13;;;19.50;99.90;;;;;;4978721;28;20161;-65
2022/07/13 07:17:31;;;;;;;1.73;1.17;;;19.60;99.90;;;;;;4977338;28;20072;-67
2022/07/13 07:20:04;;;;;;;3.53;1.23;;;19.60;99.90;;;;;;4980391;28;20046;-65
2022/07/13 07:22:30;;;;;;;2.67;2.03;;;19.70;99.90;;;;;;4980518;28;20100;-65
2022/07/13 07:24:57;;;;;;;2.08;1.00;;;19.70;99.90;;;;;;4985406;28;20180;-66
2022/07/13 07:27:25;;;;;;;1.65;1.40;;;19.60;99.90;;;;;;4976114;28;20058;-66
2022/07/13 07:29:52;;;;;;;5.10;1.23;;;19.60;99.90;;;;;;4991422;28;20081;-68
2022/07/13 07:32:19;;;;;;;9.30;3.30;;;19.60;99.90;;;;;;4987194;28;20047;-65
2022/07/13 07:34:46;;;;;;;5.30;0.80;;;19.70;99.90;;;;;;4994178;28;20441;-66
2022/07/13 07:37:13;;;;;;;1.50;0.63;;;19.70;99.90;;;;;;4999742;28;20073;-65
2022/07/13 07:39:40;;;;;;;1.60;0.60;;;19.70;99.90;;;;;;4999819;28;20127;-65
2022/07/13 07:42:07;;;;;;;1.85;0.80;;;19.80;99.90;;;;;;4994374;28;20049;-66
2022/07/13 07:44:34;;;;;;;5.20;1.27;;;19.90;99.90;;;;;;4981264;28;21318;-66
2022/07/13 07:47:01;;;;;;;1.55;1.08;;;19.80;99.90;;;;;;4982587;28;21657;-65
2022/07/13 07:49:28;;;;;;;1.17;1.05;;;19.90;99.90;;;;;;5000062;28;20110;-68
2022/07/13 07:51:55;;;;;;;3.17;0.93;;;19.90;99.90;;;;;;5005659;28;20751;-65
2022/07/13 07:54:42;;;;;;;2.08;0.77;;;20.00;99.90;;;;;;4995473;28;20048;-65
2022/07/13 07:57:09;;;;;;;1.98;1.42;;;20.20;99.90;;;;;;5002598;28;20060;-65
2022/07/13 07:59:36;;;;;;;3.38;0.90;;;20.20;99.90;;;;;;4992484;28;20333;-66
2022/07/13 08:02:03;;;;;;;2.45;0.90;;;20.10;99.90;;;;;;4988772;28;20042;-67
2022/07/13 08:04:30;;;;;;;1.10;0.70;;;20.10;99.90;;;;;;4983077;28;20045;-67
2022/07/13 08:06:57;;;;;;;4.13;0.93;;;20.10;99.90;;;;;;5002817;28;20112;-66
2022/07/13 08:09:24;;;;;;;1.83;1.52;;;20.10;99.90;;;;;;4996764;28;20145;-66
2022/07/13 08:11:51;;;;;;;3.50;1.15;;;20.10;99.90;;;;;;4985152;28;20056;-70
2022/07/13 08:14:18;;;;;;;1.95;1.30;;;20.30;99.90;;;;;;4980287;28;20492;-65
2022/07/13 08:16:45;;;;;;;3.00;1.13;;;20.40;99.90;;;;;;4994035;28;20053;-69
2022/07/13 08:19:13;;;;;;;2.08;1.35;;;20.40;99.90;;;;;;4999980;28;20675;-67
2022/07/13 08:22:00;;;;;;;3.53;1.90;;;20.40;99.90;;;;;;5004744;28;20046;-69
2022/07/13 08:24:27;;;;;;;1.55;1.15;;;20.40;99.90;;;;;;5003906;28;20073;-67
2022/07/13 08:26:54;;;;;;;1.67;0.90;;;20.40;99.90;;;;;;4993912;28;20164;-70
2022/07/13 08:29:21;;;;;;;1.67;1.02;;;20.40;99.90;;;;;;4996732;28;20450;-66
2022/07/13 08:31:48;;;;;;;0.60;0.60;;;20.30;99.90;;;;;;4993694;28;20454;-71
2022/07/13 08:39:47;;;;;;;1.50;1.38;;;20.00;99.90;;;;;;4998664;28;20108;-77
2022/07/13 08:42:14;;;;;;;1.13;1.02;;;20.10;99.90;;;;;;4996374;28;20388;-67
2022/07/13 08:44:41;;;;;;;1.30;0.80;;;20.20;99.90;;;;;;4996332;28;20137;-71
2022/07/13 08:47:10;;;;;;;1.83;0.75;;;20.20;99.90;;;;;;4994069;28;20465;-70
2022/07/13 08:49:37;;;;;;;4.05;1.00;;;20.30;99.90;;;;;;4996062;28;20157;-70
2022/07/13 08:52:05;;;;;;;1.52;1.05;;;20.30;99.90;;;;;;5002638;28;20061;-66
2022/07/13 08:54:32;;;;;;;1.83;1.25;;;20.30;99.90;;;;;;5003636;28;20045;-76
2022/07/13 08:56:59;;;;;;;1.45;1.35;;;20.40;99.90;;;;;;4990099;28;20054;-67
2022/07/13 08:59:26;;;;;;;5.38;1.70;;;20.40;99.90;;;;;;5003045;28;20054;-67
2022/07/13 09:01:53;;;;;;;1.83;1.17;;;20.40;99.90;;;;;;4999399;28;20069;-76
2022/07/13 09:04:20;;;;;;;12.15;3.03;;;20.50;99.90;;;;;;4996905;28;20054;-67
2022/07/13 09:06:48;;;;;;;1.42;1.33;;;20.50;99.90;;;;;;4998911;28;20440;-66
2022/07/13 09:09:31;;;;;;;1.38;1.13;;;20.60;99.90;;;;;;4986681;28;20116;-68
2022/07/13 09:12:20;;;;;;;1.92;1.52;;;20.60;99.90;;;;;;4989067;28;20042;-66
2022/07/13 09:14:53;;;;;;;3.08;2.03;;;20.70;99.90;;;;;;4993552;28;20112;-66
2022/07/13 09:17:44;;;;;;;3.65;2.25;;;20.80;99.90;;;;;;4999532;28;20062;-70
2022/07/13 09:20:14;;;;;;;1.40;1.25;;;21.00;99.90;;;;;;4997229;28;20049;-66
2022/07/13 09:22:55;;;;;;;2.30;1.40;;;20.90;99.90;;;;;;4994769;28;20078;-66
2022/07/13 09:25:27;;;;;;;2.47;1.70;;;20.90;99.90;;;;;;4994832;28;20157;-70
2022/07/13 09:27:54;;;;;;;1.65;1.50;;;20.90;99.90;;;;;;4990465;28;20137;-66
2022/07/13 09:30:25;;;;;;;1.73;1.60;;;20.90;99.90;;;;;;4999767;28;20065;-67
2022/07/13 09:32:54;;;;;;;3.00;2.80;;;21.00;99.90;;;;;;4985004;28;20046;-69
2022/07/13 09:35:40;;;;;;;5.27;3.83;;;21.00;99.90;;;;;;4997138;28;20046;-66
2022/07/13 09:38:07;;;;;;;2.33;1.80;;;21.00;99.90;;;;;;4997386;28;20132;-65
2022/07/13 09:40:34;;;;;;;1.95;1.85;;;20.90;99.90;;;;;;5005798;28;20053;-66
2022/07/13 09:46:32;;;;;;;3.08;1.15;;;20.90;99.90;;;;;;4996258;28;20499;-67
2022/07/13 09:48:36;;;;;;;1.50;1.38;;;21.00;99.90;;;;;;4984978;28;20093;-68
2022/07/13 09:51:03;;;;;;;1.48;1.38;;;20.90;99.90;;;;;;4990368;28;20570;-66
2022/07/13 09:53:32;;;;;;;1.75;1.25;;;21.00;99.90;;;;;;4988202;28;20128;-73
2022/07/13 09:56:00;;;;;;;1.17;1.02;;;21.10;99.90;;;;;;4991995;28;20438;-66
2022/07/13 09:58:34;;;;;;;1.23;1.13;;;21.20;99.90;;;;;;4993165;28;20074;-70
2022/07/13 10:01:03;;;;;;;1.63;1.30;;;21.30;99.90;;;;;;4993083;28;20049;-69
2022/07/13 10:03:31;;;;;;;2.78;1.30;;;21.30;99.90;;;;;;4995905;28;20049;-69
2022/07/13 10:06:00;;;;;;;1.70;1.33;;;21.40;99.90;;;;;;4995497;28;20048;-72
2022/07/13 10:08:28;;;;;;;1.83;1.17;;;21.60;99.90;;;;;;4992221;28;20161;-65
2022/07/13 10:10:55;;;;;;;3.55;1.52;;;21.70;99.90;;;;;;4994313;28;20119;-73
2022/07/13 10:13:23;;;;;;;1.50;1.40;;;21.70;99.90;;;;;;4990732;28;20496;-66
2022/07/13 10:15:50;;;;;;;1.33;1.23;;;21.70;99.90;;;;;;4996453;28;20045;-67
2022/07/13 10:18:31;;;;;;;1.25;1.15;;;21.80;99.90;;;;;;4991607;28;20137;-66
2022/07/13 10:21:14;;;;;;;3.42;1.42;;;21.80;99.90;;;;;;4990656;28;20065;-66
2022/07/13 10:23:41;;;;;;;2.00;1.52;;;21.80;99.90;;;;;;4990880;28;20440;-66
2022/07/13 10:26:25;;;;;;;4.72;1.52;;;21.90;99.90;;;;;;4995076;28;20150;-66
2022/07/13 10:29:07;;;;;;;2.15;1.95;;;21.80;99.90;;;;;;4992427;28;20134;-69
2022/07/13 10:31:36;;;;;;;2.25;1.58;;;21.90;99.90;;;;;;4997761;28;20053;-68
2022/07/13 10:34:06;;;;;;;2.95;1.63;;;21.80;99.90;;;;;;4989668;28;20034;-68
2022/07/13 10:36:51;;;;;;;9.37;2.63;;;21.80;99.90;;;;;;4994271;28;20164;-67
2022/07/13 10:39:25;;;;;;;2.38;2.10;;;21.70;99.90;;;;;;4993750;28;20311;-67
2022/07/13 10:41:58;;;;;;;3.30;1.80;;;21.80;99.90;;;;;;4991867;28;20046;-66
2022/07/13 10:44:45;;;;;;;2.28;2.08;;;21.80;99.90;;;;;;4990047;28;20046;-67
2022/07/13 10:47:14;;;;;;;2.25;2.05;;;21.90;99.90;;;;;;4985766;28;20064;-68
2022/07/13 10:49:47;;;;;;;3.90;1.70;;;22.00;99.90;;;;;;4993272;28;20049;-69
2022/07/13 10:52:26;;;;;;;7.82;2.30;;;22.20;99.90;;;;;;4991500;28;20052;-71
2022/07/13 10:55:11;;;;;;;4.07;1.60;;;22.40;99.90;;;;;;4998165;28;20488;-67
2022/07/13 10:57:42;;;;;;;2.15;1.95;;;22.20;99.90;;;;;;4996593;28;20156;-66
2022/07/13 11:00:24;;;;;;;4.53;2.38;;;22.30;99.90;;;;;;4999278;28;20167;-65
2022/07/13 11:02:54;;;;;;;1.85;1.73;;;22.50;99.90;;;;;;4997607;28;20108;-70
2022/07/13 11:05:26;;;;;;;7.88;2.05;;;22.50;99.90;;;;;;5002705;28;20054;-69
2022/07/13 11:07:54;;;;;;;1.58;1.40;;;22.60;99.90;;;;;;4993836;28;20097;-66
2022/07/13 11:10:22;;;;;;;2.05;1.77;;;22.70;99.90;;;;;;4992001;28;20464;-66
2022/07/13 11:13:09;;;;;;;2.72;2.45;;;22.70;99.90;;;;;;4991799;28;20054;-67
2022/07/13 11:15:52;;;;;;;2.72;2.33;;;22.80;99.90;;;;;;5000829;28;20062;-66
2022/07/13 11:18:22;;;;;;;2.10;1.90;;;22.90;99.90;;;;;;4996901;28;20060;-68
2022/07/13 11:21:08;;;;;;;2.42;2.13;;;23.00;99.90;;;;;;4995195;28;20042;-68
2022/07/13 11:26:49;;;;;;;2.03;1.92;;;23.20;99.90;;;;;;4990928;28;20046;-75
2022/07/13 11:29:40;;;;;;;2.03;1.77;;;23.20;99.90;;;;;;4980409;28;20054;-67
2022/07/13 11:32:07;;;;;;;2.60;2.33;;;23.20;99.90;;;;;;4994624;28;20125;-66
2022/07/13 11:34:36;;;;;;;2.67;2.40;;;22.80;99.90;;;;;;4988739;28;20057;-66
2022/07/13 11:37:03;;;;;;;1.98;1.75;;;22.70;99.90;;;;;;4991041;28;20046;-69
2022/07/13 11:39:35;;;;;;;2.30;2.08;;;22.70;99.90;;;;;;4996810;28;20107;-67
2022/07/13 11:42:07;;;;;;;3.17;1.98;;;22.80;99.90;;;;;;4999442;28;20041;-65
2022/07/13 11:44:35;;;;;;;2.50;1.88;;;22.90;99.90;;;;;;4997035;28;20073;-70
2022/07/13 11:47:07;;;;;;;2.65;1.50;;;22.90;99.90;;;;;;5000392;28;20814;-65
2022/07/13 11:49:52;;;;;;;1.70;1.48;;;22.90;99.90;;;;;;5005979;28;20461;-69
2022/07/13 11:52:22;;;;;;;2.35;1.88;;;23.00;99.90;;;;;;4992669;28;20046;-71
2022/07/13 11:54:55;;;;;;;2.35;1.80;;;23.00;99.90;;;;;;4998830;28;20046;-66
2022/07/13 11:57:22;;;;;;;3.58;1.80;;;23.10;99.90;;;;;;5002322;28;20046;-70
2022/07/13 11:59:49;;;;;;;3.33;2.08;;;23.30;99.90;;;;;;5002045;28;20057;-66
2022/07/13 12:02:16;;;;;;;2.75;2.22;;;23.40;99.90;;;;;;5005543;28;20494;-66
2022/07/13 12:04:48;;;;;;;3.90;2.17;;;23.60;99.90;;;;;;5001827;28;20440;-76
2022/07/13 12:07:25;;;;;;;5.07;2.78;;;23.70;99.90;;;;;;4998884;28;20494;-67
2022/07/13 12:09:54;;;;;;;4.75;1.75;;;24.00;99.90;;;;;;5001284;28;20042;-67
2022/07/13 12:12:27;;;;;;;2.20;1.60;;;24.10;99.90;;;;;;5005210;28;20192;-69
2022/07/13 12:14:56;;;;;;;4.72;1.23;;;24.20;99.90;;;;;;4999256;28;20090;-66
2022/07/13 12:17:24;;;;;;;3.17;1.85;;;24.30;99.90;;;;;;5006925;28;20038;-69
2022/07/13 12:19:51;;;;;;;1.38;1.27;;;24.40;99.90;;;;;;4999503;28;20046;-66
2022/07/13 12:22:22;;;;;;;1.20;1.10;;;24.50;99.90;;;;;;4999955;28;20129;-72
2022/07/13 12:24:50;;;;;;;1.45;1.35;;;24.40;99.90;;;;;;5003567;28;20042;-67
2022/07/13 12:27:34;;;;;;;1.52;1.40;;;24.60;99.90;;;;;;4994552;28;20105;-70
2022/07/13 12:30:10;;;;;;;1.30;1.20;;;24.70;99.90;;;;;;4998881;28;20041;-74
2022/07/13 12:33:02;;;;;;;1.45;1.20;;;24.40;99.90;;;;;;5005403;28;20065;-66
2022/07/13 12:35:37;;;;;;;1.60;1.48;;;24.50;99.90;;;;;;4999263;28;20679;-66
2022/07/13 12:38:09;;;;;;;2.25;1.45;;;24.60;99.90;;;;;;5001868;28;20049;-66
2022/07/13 12:40:44;;;;;;;5.00;2.03;;;24.50;99.90;;;;;;5000947;28;20058;-67
2022/07/13 12:43:18;;;;;;;1.52;1.42;;;24.50;99.90;;;;;;5002892;28;21791;-65
2022/07/13 12:45:57;;;;;;;1.60;1.50;;;24.70;99.90;;;;;;5005629;28;20157;-70
2022/07/13 12:48:29;;;;;;;1.45;1.35;;;24.70;99.90;;;;;;5004213;28;20073;-70
2022/07/13 12:51:07;;;;;;;1.45;1.27;;;24.70;99.90;;;;;;5003097;28;20049;-72
2022/07/13 12:54:04;;;;;;;1.70;1.52;;;24.90;99.90;;;;;;4998049;28;20038;-71
2022/07/13 12:56:51;;;;;;;1.55;1.30;;;25.20;99.90;;;;;;4996975;28;20112;-68
2022/07/13 12:59:21;;;;;;;1.63;1.42;;;25.10;99.90;;;;;;4993385;28;20065;-66
2022/07/13 13:01:49;;;;;;;4.18;1.42;;;25.30;99.90;;;;;;5002600;28;20392;-66
2022/07/13 13:04:17;;;;;;;3.22;1.60;;;25.20;99.90;;;;;;5000968;28;20041;-66
2022/07/13 13:06:46;;;;;;;1.92;1.55;;;25.20;99.90;;;;;;4999409;28;20065;-72
2022/07/13 13:09:17;;;;;;;1.70;1.27;;;25.20;99.90;;;;;;5004473;28;20049;-66
2022/07/13 13:11:46;;;;;;;1.92;1.77;;;25.40;99.90;;;;;;5004115;28;20072;-69